sensor_id;sensor_type;location;lat;lon;timestamp;P1;durP1;ratioP1;P2;durP2;ratioP2
55300;SDS011;58302;51.446;-2.000;2023-10-19T00:00:37;0.00;;;0.00;;
55300;SDS011;58302;51.446;-2.000;2023-10-19T00:03:10;0.13;;;0.13;;
55300;SDS011;58302;51.446;-2.000;2023-10-19T00:05:40;0.00;;;0.00;;
55300;SDS011;58302;51.446;-2.000;2023-10-19T00:08:10;0.35;;;0.35;;
55300;SDS011;58302;51.446;-2.000;2023-10-19T00:10:47;0.20;;;0.20;;
55300;SDS011;58302;51.446;-2.000;2023-10-19T00:13:28;0.00;;;0.00;;
55300;SDS011;58302;51.446;-2.000;2023-10-19T00:15:56;1.08;;;1.08;;
55300;SDS011;58302;51.446;-2.000;2023-10-19T00:18:23;0.63;;;0.28;;
55300;SDS011;58302;51.446;-2.000;2023-10-19T00:20:50;0.75;;;0.73;;
55300;SDS011;58302;51.446;-2.000;2023-10-19T00:23:19;2.42;;;0.73;;
55300;SDS011;58302;51.446;-2.000;2023-10-19T00:25:58;0.80;;;0.80;;
55300;SDS011;58302;51.446;-2.000;2023-10-19T00:28:27;1.08;;;0.80;;
55300;SDS011;58302;51.446;-2.000;2023-10-19T00:30:53;1.95;;;0.50;;
55300;SDS011;58302;51.446;-2.000;2023-10-19T00:33:25;3.65;;;1.08;;
55300;SDS011;58302;51.446;-2.000;2023-10-19T00:35:55;1.45;;;0.90;;
55300;SDS011;58302;51.446;-2.000;2023-10-19T00:41:06;2.30;;;0.90;;
55300;SDS011;58302;51.446;-2.000;2023-10-19T00:43:37;0.73;;;0.60;;
55300;SDS011;58302;51.446;-2.000;2023-10-19T00:46:11;2.05;;;0.90;;
55300;SDS011;58302;51.446;-2.000;2023-10-19T00:48:56;3.22;;;0.90;;
55300;SDS011;58302;51.446;-2.000;2023-10-19T00:51:29;2.42;;;0.65;;
55300;SDS011;58302;51.446;-2.000;2023-10-19T00:54:06;1.63;;;0.95;;
55300;SDS011;58302;51.446;-2.000;2023-10-19T00:56:43;2.42;;;0.90;;
55300;SDS011;58302;51.446;-2.000;2023-10-19T00:59:26;3.10;;;0.80;;
55300;SDS011;58302;51.446;-2.000;2023-10-19T01:01:57;2.05;;;1.00;;
55300;SDS011;58302;51.446;-2.000;2023-10-19T01:04:49;3.08;;;1.35;;
55300;SDS011;58302;51.446;-2.000;2023-10-19T01:07:32;2.33;;;1.00;;
55300;SDS011;58302;51.446;-2.000;2023-10-19T01:10:05;2.55;;;0.98;;
55300;SDS011;58302;51.446;-2.000;2023-10-19T01:15:19;1.80;;;1.10;;
55300;SDS011;58302;51.446;-2.000;2023-10-19T01:17:57;2.25;;;1.30;;
55300;SDS011;58302;51.446;-2.000;2023-10-19T01:20:27;6.78;;;1.58;;
55300;SDS011;58302;51.446;-2.000;2023-10-19T01:23:01;1.58;;;1.15;;
55300;SDS011;58302;51.446;-2.000;2023-10-19T01:25:50;4.63;;;1.65;;
55300;SDS011;58302;51.446;-2.000;2023-10-19T01:28:32;3.15;;;1.45;;
55300;SDS011;58302;51.446;-2.000;2023-10-19T01:31:20;2.72;;;1.45;;
55300;SDS011;58302;51.446;-2.000;2023-10-19T01:34:00;3.33;;;1.70;;
55300;SDS011;58302;51.446;-2.000;2023-10-19T01:36:36;3.65;;;2.00;;
55300;SDS011;58302;51.446;-2.000;2023-10-19T01:39:16;5.78;;;1.13;;
55300;SDS011;58302;51.446;-2.000;2023-10-19T01:41:54;3.65;;;1.42;;
55300;SDS011;58302;51.446;-2.000;2023-10-19T01:44:22;3.35;;;2.20;;
55300;SDS011;58302;51.446;-2.000;2023-10-19T01:47:08;4.43;;;1.48;;
55300;SDS011;58302;51.446;-2.000;2023-10-19T01:49:37;1.85;;;1.25;;
55300;SDS011;58302;51.446;-2.000;2023-10-19T01:52:04;1.60;;;1.05;;
55300;SDS011;58302;51.446;-2.000;2023-10-19T01:54:31;2.65;;;1.27;;
55300;SDS011;58302;51.446;-2.000;2023-10-19T01:57:02;5.95;;;1.60;;
55300;SDS011;58302;51.446;-2.000;2023-10-19T01:59:32;3.58;;;1.38;;
55300;SDS011;58302;51.446;-2.000;2023-10-19T02:02:00;2.65;;;1.20;;
55300;SDS011;58302;51.446;-2.000;2023-10-19T02:04:28;3.17;;;1.27;;
55300;SDS011;58302;51.446;-2.000;2023-10-19T02:07:02;2.45;;;1.48;;
55300;SDS011;58302;51.446;-2.000;2023-10-19T02:12:38;1.70;;;1.10;;
55300;SDS011;58302;51.446;-2.000;2023-10-19T02:21:11;6.20;;;1.20;;
55300;SDS011;58302;51.446;-2.000;2023-10-19T02:26:10;2.63;;;0.90;;
55300;SDS011;58302;51.446;-2.000;2023-10-19T02:28:52;2.72;;;1.10;;
55300;SDS011;58302;51.446;-2.000;2023-10-19T02:31:18;2.13;;;1.13;;
55300;SDS011;58302;51.446;-2.000;2023-10-19T02:33:49;2.13;;;1.10;;
55300;SDS011;58302;51.446;-2.000;2023-10-19T02:36:42;4.15;;;1.95;;
55300;SDS011;58302;51.446;-2.000;2023-10-19T02:42:03;6.35;;;1.90;;
55300;SDS011;58302;51.446;-2.000;2023-10-19T02:47:42;7.18;;;2.30;;
55300;SDS011;58302;51.446;-2.000;2023-10-19T02:58:59;3.70;;;1.67;;
55300;SDS011;58302;51.446;-2.000;2023-10-19T03:01:36;4.57;;;1.88;;
55300;SDS011;58302;51.446;-2.000;2023-10-19T03:04:06;2.88;;;1.83;;
55300;SDS011;58302;51.446;-2.000;2023-10-19T03:09:20;5.38;;;2.50;;
55300;SDS011;58302;51.446;-2.000;2023-10-19T03:11:54;4.15;;;2.10;;
55300;SDS011;58302;51.446;-2.000;2023-10-19T03:14:38;10.90;;;2.65;;
55300;SDS011;58302;51.446;-2.000;2023-10-19T03:17:07;11.75;;;2.70;;
55300;SDS011;58302;51.446;-2.000;2023-10-19T03:19:43;12.85;;;3.28;;
55300;SDS011;58302;51.446;-2.000;2023-10-19T03:22:22;11.48;;;3.47;;
55300;SDS011;58302;51.446;-2.000;2023-10-19T03:25:07;12.38;;;3.92;;
55300;SDS011;58302;51.446;-2.000;2023-10-19T04:11:49;9.48;;;3.60;;
55300;SDS011;58302;51.446;-2.000;2023-10-19T04:14:17;9.85;;;3.35;;
55300;SDS011;58302;51.446;-2.000;2023-10-19T04:16:44;11.35;;;3.40;;
55300;SDS011;58302;51.446;-2.000;2023-10-19T04:19:10;3.70;;;2.08;;
55300;SDS011;58302;51.446;-2.000;2023-10-19T04:21:37;9.13;;;3.17;;
55300;SDS011;58302;51.446;-2.000;2023-10-19T04:24:09;4.88;;;2.88;;
55300;SDS011;58302;51.446;-2.000;2023-10-19T04:26:36;7.28;;;3.22;;
55300;SDS011;58302;51.446;-2.000;2023-10-19T04:29:04;8.95;;;2.13;;
55300;SDS011;58302;51.446;-2.000;2023-10-19T04:31:39;3.30;;;1.67;;
55300;SDS011;58302;51.446;-2.000;2023-10-19T04:34:15;10.70;;;2.90;;
55300;SDS011;58302;51.446;-2.000;2023-10-19T04:36:46;6.60;;;2.15;;
55300;SDS011;58302;51.446;-2.000;2023-10-19T04:39:13;9.68;;;2.72;;
55300;SDS011;58302;51.446;-2.000;2023-10-19T04:41:43;7.65;;;2.40;;
55300;SDS011;58302;51.446;-2.000;2023-10-19T04:44:10;4.30;;;1.80;;
55300;SDS011;58302;51.446;-2.000;2023-10-19T04:50:05;3.72;;;1.58;;
55300;SDS011;58302;51.446;-2.000;2023-10-19T05:31:13;10.98;;;3.42;;
55300;SDS011;58302;51.446;-2.000;2023-10-19T05:33:56;10.60;;;2.58;;
55300;SDS011;58302;51.446;-2.000;2023-10-19T05:36:25;7.70;;;1.83;;
55300;SDS011;58302;51.446;-2.000;2023-10-19T05:38:51;5.10;;;2.40;;
55300;SDS011;58302;51.446;-2.000;2023-10-19T05:41:18;5.93;;;2.55;;
55300;SDS011;58302;51.446;-2.000;2023-10-19T05:43:46;20.73;;;3.15;;
55300;SDS011;58302;51.446;-2.000;2023-10-19T05:46:19;8.82;;;2.28;;
55300;SDS011;58302;51.446;-2.000;2023-10-19T05:48:47;9.05;;;2.30;;
55300;SDS011;58302;51.446;-2.000;2023-10-19T05:51:14;7.30;;;3.20;;
55300;SDS011;58302;51.446;-2.000;2023-10-19T05:53:46;7.78;;;2.00;;
55300;SDS011;58302;51.446;-2.000;2023-10-19T05:56:14;5.97;;;1.85;;
55300;SDS011;58302;51.446;-2.000;2023-10-19T05:58:51;10.70;;;2.50;;
55300;SDS011;58302;51.446;-2.000;2023-10-19T06:01:28;7.57;;;2.83;;
55300;SDS011;58302;51.446;-2.000;2023-10-19T06:03:54;4.60;;;2.03;;
55300;SDS011;58302;51.446;-2.000;2023-10-19T06:06:29;9.02;;;2.92;;
55300;SDS011;58302;51.446;-2.000;2023-10-19T06:08:58;7.10;;;2.60;;
55300;SDS011;58302;51.446;-2.000;2023-10-19T06:11:28;7.68;;;2.75;;
55300;SDS011;58302;51.446;-2.000;2023-10-19T06:13:57;14.93;;;3.13;;
55300;SDS011;58302;51.446;-2.000;2023-10-19T06:16:25;9.95;;;2.67;;
55300;SDS011;58302;51.446;-2.000;2023-10-19T06:18:54;6.85;;;2.40;;
55300;SDS011;58302;51.446;-2.000;2023-10-19T06:21:20;10.73;;;3.50;;
55300;SDS011;58302;51.446;-2.000;2023-10-19T06:23:46;5.53;;;2.55;;
55300;SDS011;58302;51.446;-2.000;2023-10-19T06:26:15;6.30;;;2.30;;
55300;SDS011;58302;51.446;-2.000;2023-10-19T06:28:41;8.73;;;2.70;;
55300;SDS011;58302;51.446;-2.000;2023-10-19T06:31:07;8.95;;;2.70;;
55300;SDS011;58302;51.446;-2.000;2023-10-19T06:33:34;9.73;;;2.92;;
55300;SDS011;58302;51.446;-2.000;2023-10-19T06:36:13;8.30;;;2.78;;
55300;SDS011;58302;51.446;-2.000;2023-10-19T06:38:39;10.65;;;2.75;;
55300;SDS011;58302;51.446;-2.000;2023-10-19T06:41:12;7.65;;;1.63;;
55300;SDS011;58302;51.446;-2.000;2023-10-19T06:48:54;12.93;;;3.03;;
55300;SDS011;58302;51.446;-2.000;2023-10-19T06:51:25;7.45;;;2.55;;
55300;SDS011;58302;51.446;-2.000;2023-10-19T06:53:53;9.35;;;3.22;;
55300;SDS011;58302;51.446;-2.000;2023-10-19T06:56:19;7.20;;;2.60;;
55300;SDS011;58302;51.446;-2.000;2023-10-19T06:58:50;5.30;;;3.10;;
55300;SDS011;58302;51.446;-2.000;2023-10-19T07:01:25;14.00;;;3.33;;
55300;SDS011;58302;51.446;-2.000;2023-10-19T07:06:26;9.20;;;3.40;;
55300;SDS011;58302;51.446;-2.000;2023-10-19T07:08:56;8.43;;;2.50;;
55300;SDS011;58302;51.446;-2.000;2023-10-19T07:11:22;4.93;;;1.90;;
55300;SDS011;58302;51.446;-2.000;2023-10-19T07:13:53;6.03;;;1.70;;
55300;SDS011;58302;51.446;-2.000;2023-10-19T07:16:19;7.75;;;2.15;;
55300;SDS011;58302;51.446;-2.000;2023-10-19T07:18:46;6.18;;;1.58;;
55300;SDS011;58302;51.446;-2.000;2023-10-19T07:21:14;2.05;;;1.20;;
55300;SDS011;58302;51.446;-2.000;2023-10-19T07:23:40;3.45;;;1.25;;
55300;SDS011;58302;51.446;-2.000;2023-10-19T08:14:50;4.22;;;1.10;;
55300;SDS011;58302;51.446;-2.000;2023-10-19T08:17:26;2.92;;;1.40;;
55300;SDS011;58302;51.446;-2.000;2023-10-19T08:20:10;3.47;;;1.73;;
55300;SDS011;58302;51.446;-2.000;2023-10-19T08:22:57;8.85;;;3.80;;
55300;SDS011;58302;51.446;-2.000;2023-10-19T08:25:34;7.22;;;3.03;;
55300;SDS011;58302;51.446;-2.000;2023-10-19T08:28:01;9.00;;;2.95;;
55300;SDS011;58302;51.446;-2.000;2023-10-19T08:30:42;8.57;;;2.50;;
55300;SDS011;58302;51.446;-2.000;2023-10-19T08:33:16;9.18;;;3.17;;
55300;SDS011;58302;51.446;-2.000;2023-10-19T08:35:42;15.13;;;3.88;;
55300;SDS011;58302;51.446;-2.000;2023-10-19T08:38:24;12.90;;;3.63;;
55300;SDS011;58302;51.446;-2.000;2023-10-19T08:40:53;7.10;;;2.75;;
55300;SDS011;58302;51.446;-2.000;2023-10-19T08:43:22;7.50;;;3.05;;
55300;SDS011;58302;51.446;-2.000;2023-10-19T08:45:50;10.13;;;2.35;;
55300;SDS011;58302;51.446;-2.000;2023-10-19T08:48:18;6.00;;;2.85;;
55300;SDS011;58302;51.446;-2.000;2023-10-19T08:50:45;8.95;;;3.03;;
55300;SDS011;58302;51.446;-2.000;2023-10-19T08:53:13;10.43;;;2.63;;
55300;SDS011;58302;51.446;-2.000;2023-10-19T08:55:40;6.65;;;3.15;;
55300;SDS011;58302;51.446;-2.000;2023-10-19T08:58:08;8.73;;;3.28;;
55300;SDS011;58302;51.446;-2.000;2023-10-19T09:00:45;8.73;;;2.72;;
55300;SDS011;58302;51.446;-2.000;2023-10-19T09:03:13;7.93;;;2.80;;
55300;SDS011;58302;51.446;-2.000;2023-10-19T09:05:40;11.27;;;2.53;;
55300;SDS011;58302;51.446;-2.000;2023-10-19T09:08:06;7.50;;;2.33;;
55300;SDS011;58302;51.446;-2.000;2023-10-19T09:10:32;5.38;;;2.65;;
55300;SDS011;58302;51.446;-2.000;2023-10-19T09:13:02;7.07;;;2.97;;
55300;SDS011;58302;51.446;-2.000;2023-10-19T09:15:33;6.85;;;2.75;;
55300;SDS011;58302;51.446;-2.000;2023-10-19T09:18:13;8.90;;;2.58;;
55300;SDS011;58302;51.446;-2.000;2023-10-19T09:20:41;11.85;;;3.75;;
55300;SDS011;58302;51.446;-2.000;2023-10-19T09:23:24;11.93;;;3.10;;
55300;SDS011;58302;51.446;-2.000;2023-10-19T09:25:53;8.23;;;2.20;;
55300;SDS011;58302;51.446;-2.000;2023-10-19T09:28:21;8.55;;;2.55;;
55300;SDS011;58302;51.446;-2.000;2023-10-19T09:30:49;15.80;;;3.17;;
55300;SDS011;58302;51.446;-2.000;2023-10-19T09:33:19;7.68;;;2.85;;
55300;SDS011;58302;51.446;-2.000;2023-10-19T09:35:47;11.55;;;2.78;;
55300;SDS011;58302;51.446;-2.000;2023-10-19T09:38:17;10.55;;;2.97;;
55300;SDS011;58302;51.446;-2.000;2023-10-19T09:40:54;4.43;;;1.73;;
55300;SDS011;58302;51.446;-2.000;2023-10-19T09:46:08;10.43;;;3.33;;
55300;SDS011;58302;51.446;-2.000;2023-10-19T09:48:40;12.48;;;4.35;;
55300;SDS011;58302;51.446;-2.000;2023-10-19T09:51:08;8.88;;;2.25;;
55300;SDS011;58302;51.446;-2.000;2023-10-19T09:53:35;6.45;;;3.00;;
55300;SDS011;58302;51.446;-2.000;2023-10-19T09:56:04;5.75;;;2.15;;
55300;SDS011;58302;51.446;-2.000;2023-10-19T09:58:35;7.13;;;3.33;;
55300;SDS011;58302;51.446;-2.000;2023-10-19T10:01:04;8.23;;;2.88;;
55300;SDS011;58302;51.446;-2.000;2023-10-19T10:06:14;6.40;;;2.50;;
55300;SDS011;58302;51.446;-2.000;2023-10-19T10:08:42;8.80;;;2.75;;
55300;SDS011;58302;51.446;-2.000;2023-10-19T10:11:14;9.45;;;2.80;;
55300;SDS011;58302;51.446;-2.000;2023-10-19T10:13:45;10.52;;;2.88;;
55300;SDS011;58302;51.446;-2.000;2023-10-19T10:16:19;7.18;;;3.30;;
55300;SDS011;58302;51.446;-2.000;2023-10-19T10:18:58;9.85;;;2.22;;
55300;SDS011;58302;51.446;-2.000;2023-10-19T10:21:29;7.88;;;2.97;;
55300;SDS011;58302;51.446;-2.000;2023-10-19T10:23:56;6.50;;;2.13;;
55300;SDS011;58302;51.446;-2.000;2023-10-19T10:26:27;9.68;;;2.97;;
55300;SDS011;58302;51.446;-2.000;2023-10-19T10:29:14;9.63;;;2.75;;
55300;SDS011;58302;51.446;-2.000;2023-10-19T10:31:48;15.10;;;3.03;;
55300;SDS011;58302;51.446;-2.000;2023-10-19T10:37:05;9.68;;;2.28;;
55300;SDS011;58302;51.446;-2.000;2023-10-19T10:39:34;9.52;;;3.63;;
55300;SDS011;58302;51.446;-2.000;2023-10-19T10:42:04;10.30;;;3.25;;
55300;SDS011;58302;51.446;-2.000;2023-10-19T10:44:38;11.57;;;3.08;;
55300;SDS011;58302;51.446;-2.000;2023-10-19T10:47:06;9.82;;;2.88;;
55300;SDS011;58302;51.446;-2.000;2023-10-19T10:49:53;11.60;;;3.88;;
55300;SDS011;58302;51.446;-2.000;2023-10-19T10:52:28;12.98;;;4.40;;
55300;SDS011;58302;51.446;-2.000;2023-10-19T10:55:08;5.82;;;2.95;;
55300;SDS011;58302;51.446;-2.000;2023-10-19T10:57:36;9.75;;;2.83;;
55300;SDS011;58302;51.446;-2.000;2023-10-19T11:00:10;12.13;;;3.97;;
55300;SDS011;58302;51.446;-2.000;2023-10-19T11:02:46;9.25;;;2.70;;
55300;SDS011;58302;51.446;-2.000;2023-10-19T11:05:15;13.35;;;3.50;;
55300;SDS011;58302;51.446;-2.000;2023-10-19T11:10:34;13.88;;;3.58;;
55300;SDS011;58302;51.446;-2.000;2023-10-19T11:13:04;6.57;;;3.15;;
55300;SDS011;58302;51.446;-2.000;2023-10-19T11:15:33;10.73;;;3.65;;
55300;SDS011;58302;51.446;-2.000;2023-10-19T11:18:35;10.30;;;3.28;;
55300;SDS011;58302;51.446;-2.000;2023-10-19T11:21:15;12.30;;;3.63;;
55300;SDS011;58302;51.446;-2.000;2023-10-19T11:23:46;10.20;;;3.67;;
55300;SDS011;58302;51.446;-2.000;2023-10-19T11:26:16;13.45;;;4.00;;
55300;SDS011;58302;51.446;-2.000;2023-10-19T11:31:25;6.68;;;3.15;;
55300;SDS011;58302;51.446;-2.000;2023-10-19T11:44:17;2.15;;;1.20;;
55300;SDS011;58302;51.446;-2.000;2023-10-19T11:51:11;3.22;;;1.42;;
55300;SDS011;58302;51.446;-2.000;2023-10-19T11:56:41;6.18;;;2.00;;
55300;SDS011;58302;51.446;-2.000;2023-10-19T12:02:43;9.55;;;2.42;;
55300;SDS011;58302;51.446;-2.000;2023-10-19T12:05:10;8.02;;;2.80;;
55300;SDS011;58302;51.446;-2.000;2023-10-19T12:07:36;8.15;;;2.60;;
55300;SDS011;58302;51.446;-2.000;2023-10-19T12:10:08;13.10;;;3.15;;
55300;SDS011;58302;51.446;-2.000;2023-10-19T12:12:43;9.02;;;3.40;;
55300;SDS011;58302;51.446;-2.000;2023-10-19T12:15:11;10.32;;;3.13;;
55300;SDS011;58302;51.446;-2.000;2023-10-19T12:17:41;11.23;;;2.55;;
55300;SDS011;58302;51.446;-2.000;2023-10-19T12:23:47;7.55;;;1.80;;
55300;SDS011;58302;51.446;-2.000;2023-10-19T12:26:17;8.38;;;3.20;;
55300;SDS011;58302;51.446;-2.000;2023-10-19T12:28:43;4.35;;;1.98;;
55300;SDS011;58302;51.446;-2.000;2023-10-19T12:31:15;4.05;;;1.83;;
55300;SDS011;58302;51.446;-2.000;2023-10-19T12:33:50;5.13;;;2.38;;
55300;SDS011;58302;51.446;-2.000;2023-10-19T12:36:25;5.72;;;1.58;;
55300;SDS011;58302;51.446;-2.000;2023-10-19T12:39:14;7.32;;;2.33;;
55300;SDS011;58302;51.446;-2.000;2023-10-19T12:45:23;6.72;;;1.85;;
55300;SDS011;58302;51.446;-2.000;2023-10-19T12:47:51;6.65;;;1.83;;
55300;SDS011;58302;51.446;-2.000;2023-10-19T12:53:58;5.20;;;2.42;;
55300;SDS011;58302;51.446;-2.000;2023-10-19T12:56:31;8.15;;;3.63;;
55300;SDS011;58302;51.446;-2.000;2023-10-19T12:59:07;8.60;;;3.38;;
55300;SDS011;58302;51.446;-2.000;2023-10-19T13:01:34;11.73;;;4.70;;
55300;SDS011;58302;51.446;-2.000;2023-10-19T13:04:01;6.55;;;2.72;;
55300;SDS011;58302;51.446;-2.000;2023-10-19T13:06:40;13.32;;;2.83;;
55300;SDS011;58302;51.446;-2.000;2023-10-19T13:09:15;9.45;;;3.35;;
55300;SDS011;58302;51.446;-2.000;2023-10-19T13:11:48;12.55;;;4.15;;
55300;SDS011;58302;51.446;-2.000;2023-10-19T13:14:17;12.77;;;4.20;;
55300;SDS011;58302;51.446;-2.000;2023-10-19T13:17:01;10.50;;;4.15;;
55300;SDS011;58302;51.446;-2.000;2023-10-19T13:19:32;8.85;;;3.70;;
55300;SDS011;58302;51.446;-2.000;2023-10-19T13:25:11;10.43;;;4.60;;
55300;SDS011;58302;51.446;-2.000;2023-10-19T13:27:47;21.70;;;8.25;;
55300;SDS011;58302;51.446;-2.000;2023-10-19T13:33:05;7.70;;;3.10;;
55300;SDS011;58302;51.446;-2.000;2023-10-19T13:35:36;10.25;;;3.03;;
55300;SDS011;58302;51.446;-2.000;2023-10-19T13:38:09;9.40;;;3.42;;
55300;SDS011;58302;51.446;-2.000;2023-10-19T13:40:48;9.68;;;3.00;;
55300;SDS011;58302;51.446;-2.000;2023-10-19T13:43:18;7.88;;;3.45;;
55300;SDS011;58302;51.446;-2.000;2023-10-19T13:45:45;9.93;;;2.65;;
55300;SDS011;58302;51.446;-2.000;2023-10-19T13:48:14;9.48;;;2.90;;
55300;SDS011;58302;51.446;-2.000;2023-10-19T13:50:49;7.90;;;2.08;;
55300;SDS011;58302;51.446;-2.000;2023-10-19T13:53:17;10.55;;;1.77;;
55300;SDS011;58302;51.446;-2.000;2023-10-19T13:55:44;7.55;;;2.70;;
55300;SDS011;58302;51.446;-2.000;2023-10-19T13:58:11;10.90;;;2.92;;
55300;SDS011;58302;51.446;-2.000;2023-10-19T14:00:40;17.35;;;3.92;;
55300;SDS011;58302;51.446;-2.000;2023-10-19T14:03:09;10.85;;;3.70;;
55300;SDS011;58302;51.446;-2.000;2023-10-19T14:05:39;13.02;;;3.13;;
55300;SDS011;58302;51.446;-2.000;2023-10-19T14:08:09;6.00;;;2.28;;
55300;SDS011;58302;51.446;-2.000;2023-10-19T14:10:36;11.25;;;2.88;;
55300;SDS011;58302;51.446;-2.000;2023-10-19T14:13:02;13.85;;;5.10;;
55300;SDS011;58302;51.446;-2.000;2023-10-19T14:15:31;8.55;;;2.78;;
55300;SDS011;58302;51.446;-2.000;2023-10-19T14:17:59;8.93;;;2.50;;
55300;SDS011;58302;51.446;-2.000;2023-10-19T14:20:28;4.60;;;2.72;;
55300;SDS011;58302;51.446;-2.000;2023-10-19T14:22:55;6.63;;;2.05;;
55300;SDS011;58302;51.446;-2.000;2023-10-19T14:25:22;12.77;;;2.90;;
55300;SDS011;58302;51.446;-2.000;2023-10-19T14:27:49;7.30;;;2.47;;
55300;SDS011;58302;51.446;-2.000;2023-10-19T14:30:17;5.72;;;1.90;;
55300;SDS011;58302;51.446;-2.000;2023-10-19T14:32:47;8.30;;;2.78;;
55300;SDS011;58302;51.446;-2.000;2023-10-19T14:35:18;5.65;;;2.38;;
55300;SDS011;58302;51.446;-2.000;2023-10-19T14:37:46;15.52;;;3.85;;
55300;SDS011;58302;51.446;-2.000;2023-10-19T14:40:18;8.32;;;2.95;;
55300;SDS011;58302;51.446;-2.000;2023-10-19T14:42:49;7.90;;;2.63;;
55300;SDS011;58302;51.446;-2.000;2023-10-19T14:45:19;19.10;;;3.50;;
55300;SDS011;58302;51.446;-2.000;2023-10-19T14:47:47;14.98;;;3.97;;
55300;SDS011;58302;51.446;-2.000;2023-10-19T14:50:14;7.70;;;3.05;;
55300;SDS011;58302;51.446;-2.000;2023-10-19T14:52:42;12.52;;;3.30;;
55300;SDS011;58302;51.446;-2.000;2023-10-19T14:55:09;8.43;;;3.10;;
55300;SDS011;58302;51.446;-2.000;2023-10-19T14:57:37;10.52;;;4.78;;
55300;SDS011;58302;51.446;-2.000;2023-10-19T15:00:05;8.32;;;3.67;;
55300;SDS011;58302;51.446;-2.000;2023-10-19T15:02:41;9.65;;;2.65;;
55300;SDS011;58302;51.446;-2.000;2023-10-19T15:05:08;12.63;;;3.53;;
55300;SDS011;58302;51.446;-2.000;2023-10-19T15:07:42;5.03;;;2.20;;
55300;SDS011;58302;51.446;-2.000;2023-10-19T15:10:14;7.80;;;3.00;;
55300;SDS011;58302;51.446;-2.000;2023-10-19T15:12:40;8.57;;;4.82;;
55300;SDS011;58302;51.446;-2.000;2023-10-19T15:15:07;11.30;;;3.90;;
55300;SDS011;58302;51.446;-2.000;2023-10-19T15:17:37;12.63;;;4.03;;
55300;SDS011;58302;51.446;-2.000;2023-10-19T15:20:05;11.88;;;3.47;;
55300;SDS011;58302;51.446;-2.000;2023-10-19T15:22:32;13.35;;;4.05;;
55300;SDS011;58302;51.446;-2.000;2023-10-19T15:24:59;12.80;;;3.95;;
55300;SDS011;58302;51.446;-2.000;2023-10-19T15:27:26;13.27;;;4.30;;
55300;SDS011;58302;51.446;-2.000;2023-10-19T15:29:58;15.57;;;3.72;;
55300;SDS011;58302;51.446;-2.000;2023-10-19T15:32:26;19.33;;;4.32;;
55300;SDS011;58302;51.446;-2.000;2023-10-19T15:34:55;11.15;;;5.35;;
55300;SDS011;58302;51.446;-2.000;2023-10-19T15:37:23;19.50;;;4.30;;
55300;SDS011;58302;51.446;-2.000;2023-10-19T15:39:50;11.30;;;5.22;;
55300;SDS011;58302;51.446;-2.000;2023-10-19T15:42:18;16.20;;;3.65;;
55300;SDS011;58302;51.446;-2.000;2023-10-19T15:44:45;13.32;;;3.35;;
55300;SDS011;58302;51.446;-2.000;2023-10-19T15:47:12;13.93;;;3.72;;
55300;SDS011;58302;51.446;-2.000;2023-10-19T15:49:48;88.03;;;40.55;;
55300;SDS011;58302;51.446;-2.000;2023-10-19T15:52:20;81.75;;;40.45;;
55300;SDS011;58302;51.446;-2.000;2023-10-19T15:54:47;24.25;;;12.73;;
55300;SDS011;58302;51.446;-2.000;2023-10-19T15:57:15;48.70;;;22.42;;
55300;SDS011;58302;51.446;-2.000;2023-10-19T15:59:42;13.30;;;5.72;;
55300;SDS011;58302;51.446;-2.000;2023-10-19T16:02:12;26.65;;;5.47;;
55300;SDS011;58302;51.446;-2.000;2023-10-19T16:04:42;21.02;;;11.77;;
55300;SDS011;58302;51.446;-2.000;2023-10-19T16:07:11;13.75;;;7.00;;
55300;SDS011;58302;51.446;-2.000;2023-10-19T16:09:39;9.13;;;5.65;;
55300;SDS011;58302;51.446;-2.000;2023-10-19T16:12:07;14.70;;;5.30;;
55300;SDS011;58302;51.446;-2.000;2023-10-19T16:14:34;13.77;;;4.03;;
55300;SDS011;58302;51.446;-2.000;2023-10-19T16:17:01;12.85;;;4.60;;
55300;SDS011;58302;51.446;-2.000;2023-10-19T16:19:32;31.48;;;13.90;;
55300;SDS011;58302;51.446;-2.000;2023-10-19T16:21:58;29.05;;;11.70;;
55300;SDS011;58302;51.446;-2.000;2023-10-19T16:24:24;12.05;;;4.30;;
55300;SDS011;58302;51.446;-2.000;2023-10-19T16:26:52;22.85;;;7.57;;
55300;SDS011;58302;51.446;-2.000;2023-10-19T16:29:18;11.30;;;5.25;;
55300;SDS011;58302;51.446;-2.000;2023-10-19T16:31:45;13.80;;;3.28;;
55300;SDS011;58302;51.446;-2.000;2023-10-19T16:34:13;10.82;;;4.13;;
55300;SDS011;58302;51.446;-2.000;2023-10-19T16:36:41;15.65;;;5.40;;
55300;SDS011;58302;51.446;-2.000;2023-10-19T16:39:09;16.88;;;4.85;;
55300;SDS011;58302;51.446;-2.000;2023-10-19T16:41:45;14.18;;;3.50;;
55300;SDS011;58302;51.446;-2.000;2023-10-19T16:44:12;11.52;;;5.05;;
55300;SDS011;58302;51.446;-2.000;2023-10-19T16:46:40;12.15;;;4.57;;
55300;SDS011;58302;51.446;-2.000;2023-10-19T16:49:10;10.65;;;3.53;;
55300;SDS011;58302;51.446;-2.000;2023-10-19T16:51:36;12.27;;;3.50;;
55300;SDS011;58302;51.446;-2.000;2023-10-19T16:54:14;15.80;;;5.82;;
55300;SDS011;58302;51.446;-2.000;2023-10-19T16:56:41;11.02;;;4.32;;
55300;SDS011;58302;51.446;-2.000;2023-10-19T16:59:12;17.35;;;5.65;;
55300;SDS011;58302;51.446;-2.000;2023-10-19T17:01:41;10.20;;;4.20;;
55300;SDS011;58302;51.446;-2.000;2023-10-19T17:04:08;13.48;;;5.32;;
55300;SDS011;58302;51.446;-2.000;2023-10-19T17:06:36;17.77;;;4.88;;
55300;SDS011;58302;51.446;-2.000;2023-10-19T17:09:20;29.13;;;10.65;;
55300;SDS011;58302;51.446;-2.000;2023-10-19T17:11:47;39.72;;;16.05;;
55300;SDS011;58302;51.446;-2.000;2023-10-19T17:14:22;18.42;;;8.27;;
55300;SDS011;58302;51.446;-2.000;2023-10-19T17:17:01;17.77;;;6.85;;
55300;SDS011;58302;51.446;-2.000;2023-10-19T17:19:29;32.45;;;11.63;;
55300;SDS011;58302;51.446;-2.000;2023-10-19T17:21:56;32.50;;;8.85;;
55300;SDS011;58302;51.446;-2.000;2023-10-19T17:24:23;23.67;;;9.70;;
55300;SDS011;58302;51.446;-2.000;2023-10-19T17:26:49;11.40;;;4.47;;
55300;SDS011;58302;51.446;-2.000;2023-10-19T17:29:15;11.93;;;4.35;;
55300;SDS011;58302;51.446;-2.000;2023-10-19T17:31:41;8.25;;;4.13;;
55300;SDS011;58302;51.446;-2.000;2023-10-19T17:34:08;7.57;;;3.85;;
55300;SDS011;58302;51.446;-2.000;2023-10-19T17:36:35;5.57;;;2.75;;
55300;SDS011;58302;51.446;-2.000;2023-10-19T17:39:01;5.10;;;2.15;;
55300;SDS011;58302;51.446;-2.000;2023-10-19T17:41:28;7.43;;;3.15;;
55300;SDS011;58302;51.446;-2.000;2023-10-19T17:43:55;3.25;;;2.63;;
55300;SDS011;58302;51.446;-2.000;2023-10-19T17:46:33;5.25;;;1.60;;
55300;SDS011;58302;51.446;-2.000;2023-10-19T17:49:04;5.32;;;2.03;;
55300;SDS011;58302;51.446;-2.000;2023-10-19T17:59:28;7.18;;;1.95;;
55300;SDS011;58302;51.446;-2.000;2023-10-19T18:02:03;9.93;;;2.90;;
55300;SDS011;58302;51.446;-2.000;2023-10-19T18:04:42;12.00;;;5.50;;
55300;SDS011;58302;51.446;-2.000;2023-10-19T18:29:02;6.35;;;2.95;;
55300;SDS011;58302;51.446;-2.000;2023-10-19T18:31:31;4.85;;;2.40;;
55300;SDS011;58302;51.446;-2.000;2023-10-19T18:33:57;8.23;;;3.25;;
55300;SDS011;58302;51.446;-2.000;2023-10-19T18:36:26;4.95;;;2.13;;
55300;SDS011;58302;51.446;-2.000;2023-10-19T18:38:59;6.00;;;2.75;;
55300;SDS011;58302;51.446;-2.000;2023-10-19T18:41:25;12.95;;;3.65;;
55300;SDS011;58302;51.446;-2.000;2023-10-19T18:43:52;4.75;;;2.70;;
55300;SDS011;58302;51.446;-2.000;2023-10-19T18:46:19;7.30;;;3.33;;
55300;SDS011;58302;51.446;-2.000;2023-10-19T18:48:45;11.55;;;3.08;;
55300;SDS011;58302;51.446;-2.000;2023-10-19T18:51:12;9.50;;;3.47;;
55300;SDS011;58302;51.446;-2.000;2023-10-19T18:53:38;11.25;;;3.60;;
55300;SDS011;58302;51.446;-2.000;2023-10-19T18:56:05;12.82;;;3.75;;
55300;SDS011;58302;51.446;-2.000;2023-10-19T18:58:31;14.20;;;4.57;;
55300;SDS011;58302;51.446;-2.000;2023-10-19T19:01:01;10.85;;;3.60;;
55300;SDS011;58302;51.446;-2.000;2023-10-19T19:03:29;13.25;;;3.92;;
55300;SDS011;58302;51.446;-2.000;2023-10-19T19:05:58;7.60;;;3.70;;
55300;SDS011;58302;51.446;-2.000;2023-10-19T19:08:30;14.63;;;4.30;;